Lawrenceburg, TN

5:40 AM CST on January 29, 2015 (GMT -0600)
WLX Radio Studios | Change Station
CLOSE
Current Station
Personal Weather Station
Location: Lawrenceburg, TN
Elevation: 932 ft
Nearby Weather Stations

Elev 932 ft 35.25 °N, 87.33 °W | Updated 11 minutes ago

Partly Cloudy
Partly Cloudy
45.5 °F
Feels Like 43 °F
N
5.0
Wind Variable Wind from South
Gusts 13.0 mph

Today
High -- | Low -- °F
--% Chance of Precip.
Yesterday
High -- | Low -- °F
Precip. -- in
6:50 AM 5:14 PM
Waxing Gibbous, 73% visible
Pressure 30.05 in
Visibility 10.0 miles
Clouds Scattered Clouds 6500 ft
Scattered Clouds 7500 ft
Overcast 9500 ft
Windchill 43 °F
Dew Point 32 °F
Humidity 59%
Rainfall 0.00 in
Snow Depth Not available.
UV 0 out of 12
Pollen 1.60 out of 12
Air Quality Not available.
Flu Activity Not available.
METAR KMRC 291135Z AUTO 19017KT 10SM SCT065 SCT075 OVC095 08/02 A3005 RMK

More Conditions Fewer Conditions

Pressure 30.05 in
Visibility 10.0 miles
Clouds Scattered Clouds 6500 ft
Scattered Clouds 7500 ft
Overcast 9500 ft
Windchill 43 °F
Dew Point 32 °F
Humidity 59%
Rainfall 0.00 in
Snow Depth Not available.
UV 0 out of 12
Pollen 1.60 out of 12
Air Quality Not available.
Flu Activity Not available.
METAR KMRC 291135Z AUTO 19017KT 10SM SCT065 SCT075 OVC095 08/02 A3005 RMK

More Conditions Fewer Conditions

10-Day Weather Forecast

Almanac

Astronomy

Jan. 29, 2015 Rise Set
Actual Time
Civil Twilight
Nautical Twilight
Astronomical Twilight
Moon
Length of Visible Light
Length of Day
Tomorrow will be .
, % of the Moon is Illuminated

Today's Extremes

State Highs State Lows

Community

WunderPhotos

Upload Photos

1,791,408 photos uploaded!

WunderBlogs® & News

Nearby

Air Quality

  Air Quality AQ Index Pollutant
Not available.

Snow Depth

Station Depth Elevation

Earthquake Activity

City Distance Mag. Time & Date
Minimum magnitude displayed is 2.5.

Coastal Water Temperatures

Place Temperature

Nearby Weather Stations